createdAt,value
2023-05-17T09:07:05.422Z,2.03
2023-05-17T09:09:34.136Z,1.80
2023-05-17T09:12:03.338Z,1.40
2023-05-17T09:14:35.092Z,1.80
2023-05-17T09:17:03.240Z,1.70
2023-05-17T09:19:32.251Z,1.63
2023-05-17T09:22:02.548Z,1.40
2023-05-17T09:24:31.996Z,1.15
2023-05-17T09:27:04.242Z,1.50
2023-05-17T09:29:33.357Z,1.20
2023-05-17T09:32:13.930Z,1.25
2023-05-17T09:34:42.983Z,0.88
2023-05-17T09:37:15.423Z,1.35
2023-05-17T09:39:46.063Z,0.73
2023-05-17T09:42:14.579Z,1.10
2023-05-17T09:44:53.338Z,0.95
2023-05-17T09:47:25.821Z,1.15
2023-05-17T09:49:54.029Z,1.10
2023-05-17T09:52:22.632Z,0.80
2023-05-17T09:54:55.941Z,0.77
2023-05-17T09:57:24.437Z,0.93
2023-05-17T09:59:55.863Z,0.90
2023-05-17T10:02:27.651Z,0.80
2023-05-17T10:04:58.138Z,1.13
2023-05-17T10:07:28.129Z,0.95
2023-05-17T10:09:58.396Z,0.70
2023-05-17T10:12:30.497Z,0.90
2023-05-17T10:15:00.068Z,0.70
2023-05-17T10:17:29.689Z,0.40
2023-05-17T10:19:58.726Z,0.65
2023-05-17T10:22:29.113Z,0.73
2023-05-17T10:24:59.513Z,0.77
2023-05-17T10:27:27.769Z,0.75
2023-05-17T10:29:56.009Z,0.75
2023-05-17T10:32:27.030Z,0.57
2023-05-17T10:35:09.253Z,0.60
2023-05-17T10:37:41.199Z,0.73
2023-05-17T10:40:13.803Z,0.70
2023-05-17T10:42:44.516Z,0.77
2023-05-17T10:45:14.688Z,0.45
2023-05-17T10:47:43.497Z,0.40
2023-05-17T10:50:14.934Z,0.50
2023-05-17T10:52:48.583Z,0.60
2023-05-17T10:55:21.958Z,0.60
2023-05-17T10:58:19.964Z,0.80
2023-05-17T11:00:49.993Z,0.40
2023-05-17T11:03:20.146Z,0.38
2023-05-17T11:06:24.694Z,0.47
2023-05-17T11:09:18.554Z,0.40
2023-05-17T11:12:07.793Z,0.40
2023-05-17T11:14:48.751Z,0.30
2023-05-17T11:17:18.860Z,0.45
2023-05-17T11:20:10.908Z,0.68
2023-05-17T11:22:42.337Z,0.52
2023-05-17T11:25:12.363Z,0.50
2023-05-17T11:27:47.794Z,0.70
2023-05-17T11:30:20.629Z,0.40
2023-05-17T11:32:50.814Z,0.77
2023-05-17T11:35:19.780Z,0.60
2023-05-17T11:37:47.983Z,0.50
2023-05-17T11:40:26.242Z,0.30
2023-05-17T11:43:17.536Z,0.45
2023-05-17T11:45:47.984Z,0.90
2023-05-17T11:48:17.591Z,0.77
2023-05-17T11:50:48.108Z,0.30
2023-05-17T11:53:16.938Z,0.57
2023-05-17T11:55:47.204Z,0.73
2023-05-17T11:58:18.141Z,0.60
2023-05-17T12:00:46.279Z,0.40
2023-05-17T12:03:21.429Z,0.70
2023-05-17T12:05:51.387Z,1.10
2023-05-17T12:08:20.319Z,0.80
2023-05-17T12:10:50.427Z,0.70
2023-05-17T12:13:20.286Z,0.85
2023-05-17T12:15:54.349Z,0.75
2023-05-17T12:18:22.362Z,0.77
2023-05-17T12:21:01.461Z,1.00
2023-05-17T12:23:34.528Z,0.80
2023-05-17T12:26:10.451Z,0.75
2023-05-17T12:28:40.883Z,0.90
2023-05-17T12:31:11.289Z,0.88
2023-05-17T12:33:42.199Z,0.68
2023-05-17T12:36:11.765Z,0.60
2023-05-17T12:38:42.458Z,1.08
2023-05-17T12:41:13.332Z,0.60
2023-05-17T12:43:45.894Z,0.60
2023-05-17T12:46:17.800Z,0.60
2023-05-17T12:48:46.108Z,0.50
2023-05-17T12:51:15.886Z,0.50
2023-05-17T12:53:45.578Z,0.60
2023-05-17T12:56:17.898Z,0.90
2023-05-17T12:59:05.694Z,0.90
2023-05-17T13:01:37.392Z,0.68
2023-05-17T13:04:05.845Z,0.65
2023-05-17T13:06:45.614Z,0.82
2023-05-17T13:09:14.405Z,0.60
2023-05-17T13:11:42.738Z,0.50
2023-05-17T13:14:13.484Z,0.32
2023-05-17T13:16:42.845Z,0.50
2023-05-17T13:19:14.648Z,0.52
2023-05-17T13:21:42.669Z,0.70
2023-05-17T13:24:11.275Z,0.40
2023-05-17T13:26:39.279Z,0.50
2023-05-17T13:29:07.305Z,0.40
2023-05-17T13:31:36.608Z,0.60
2023-05-17T13:34:04.626Z,0.50
2023-05-17T13:36:32.586Z,0.52
2023-05-17T13:39:01.935Z,0.60
2023-05-17T13:41:29.924Z,0.60
2023-05-17T13:43:58.300Z,0.60
2023-05-17T13:46:26.408Z,0.50
2023-05-17T13:48:55.754Z,0.80
2023-05-17T13:51:25.393Z,0.63
2023-05-17T13:53:53.542Z,0.40
2023-05-17T13:56:22.199Z,0.47
2023-05-17T13:58:50.540Z,0.60
2023-05-17T14:01:18.860Z,0.75
2023-05-17T14:03:47.020Z,0.75
2023-05-17T14:06:16.383Z,0.98
2023-05-17T14:08:46.221Z,0.80
2023-05-17T14:11:14.171Z,1.20
2023-05-17T14:13:42.698Z,0.80
2023-05-17T14:16:10.741Z,0.93
2023-05-17T14:18:38.839Z,0.50
2023-05-17T14:21:08.117Z,0.68
2023-05-17T14:23:37.521Z,0.73
2023-05-17T14:26:07.329Z,1.10
2023-05-17T14:28:37.867Z,0.65
2023-05-17T14:31:06.348Z,1.17
2023-05-17T14:33:34.345Z,0.75
2023-05-17T14:36:03.605Z,0.90
2023-05-17T14:38:31.607Z,0.68
2023-05-17T14:41:02.257Z,0.80
2023-05-17T14:43:30.364Z,1.10
2023-05-17T14:45:58.298Z,1.00
2023-05-17T14:48:26.363Z,0.80
2023-05-17T14:50:54.298Z,0.80
2023-05-17T14:53:23.361Z,0.98
2023-05-17T14:55:51.355Z,0.60
2023-05-17T14:58:21.795Z,0.68
2023-05-17T15:00:56.256Z,1.15
2023-05-17T15:03:26.928Z,0.80
2023-05-17T15:05:55.453Z,0.95
2023-05-17T15:08:23.488Z,0.93
2023-05-17T15:10:52.131Z,0.60
2023-05-17T15:13:21.579Z,1.40
2023-05-17T15:15:49.519Z,0.73
2023-05-17T15:18:17.424Z,0.80
2023-05-17T15:20:45.458Z,0.70
2023-05-17T15:23:13.448Z,1.08
2023-05-17T15:25:41.689Z,0.90
2023-05-17T15:28:09.598Z,1.08
2023-05-17T15:30:41.204Z,0.70
2023-05-17T15:33:09.901Z,0.85
2023-05-17T15:35:41.301Z,0.45
2023-05-17T15:38:09.231Z,0.70
2023-05-17T15:40:37.619Z,0.80
2023-05-17T15:43:05.540Z,1.20
2023-05-17T15:45:33.649Z,0.70
2023-05-17T15:48:03.248Z,0.50
2023-05-17T15:50:31.402Z,0.80
2023-05-17T15:53:01.805Z,0.70
2023-05-17T15:55:30.530Z,0.82
2023-05-17T15:57:58.600Z,0.75
2023-05-17T16:00:27.676Z,0.75
2023-05-17T16:02:55.673Z,0.57
2023-05-17T16:05:24.941Z,0.70
2023-05-17T16:07:52.838Z,0.70
2023-05-17T16:10:20.926Z,1.00
2023-05-17T16:12:50.207Z,0.85
2023-05-17T16:15:18.276Z,0.60
2023-05-17T16:17:46.467Z,0.57
2023-05-17T16:20:14.631Z,1.17
2023-05-17T16:22:45.779Z,0.73
2023-05-17T16:25:16.851Z,0.90
2023-05-17T16:27:45.820Z,0.65
2023-05-17T16:30:14.006Z,0.60
2023-05-17T16:32:42.026Z,0.55
2023-05-17T16:35:10.532Z,1.00
2023-05-17T16:37:38.441Z,1.05
2023-05-17T16:40:09.288Z,0.50
2023-05-17T16:42:37.440Z,0.70
2023-05-17T16:45:07.715Z,0.63
2023-05-17T16:47:38.212Z,0.90
2023-05-17T16:50:07.072Z,0.60
2023-05-17T16:52:34.987Z,1.00
2023-05-17T16:55:04.060Z,0.82
2023-05-17T16:57:33.460Z,1.00
2023-05-17T17:00:02.091Z,1.00
2023-05-17T17:02:30.231Z,0.70
2023-05-17T17:04:59.245Z,0.70
2023-05-17T17:07:27.180Z,0.60
2023-05-17T17:09:55.064Z,0.80
2023-05-17T17:12:25.513Z,0.65
2023-05-17T17:14:55.790Z,0.50
2023-05-17T17:17:23.708Z,0.55
2023-05-17T17:19:52.253Z,0.95
2023-05-17T17:22:20.184Z,0.60
2023-05-17T17:24:48.117Z,0.68
2023-05-17T17:27:16.073Z,0.60
2023-05-17T17:29:43.987Z,0.63
2023-05-17T17:32:13.255Z,0.50
2023-05-17T17:34:41.229Z,0.68
2023-05-17T17:37:09.137Z,0.50
2023-05-17T17:39:37.006Z,0.70
2023-05-17T17:42:05.231Z,0.60
2023-05-17T17:44:33.126Z,0.77
2023-05-17T17:47:01.104Z,0.70
2023-05-17T17:49:30.901Z,0.80
2023-05-17T17:51:59.014Z,0.77
2023-05-17T17:54:26.917Z,0.60
2023-05-17T17:56:55.802Z,1.00
2023-05-17T17:59:23.711Z,0.57
2023-05-17T18:01:51.720Z,0.60
2023-05-17T18:04:19.773Z,0.70
2023-05-17T18:06:50.058Z,0.80
2023-05-17T18:09:17.966Z,0.90
2023-05-17T18:11:46.113Z,0.70
2023-05-17T18:14:15.198Z,0.90
2023-05-17T18:16:43.153Z,0.60
2023-05-17T18:19:11.167Z,0.95
2023-05-17T18:21:39.127Z,0.90
2023-05-17T18:24:09.371Z,0.82
2023-05-17T18:26:37.336Z,0.70
2023-05-17T18:29:05.268Z,0.90
2023-05-17T18:31:33.226Z,0.82
2023-05-17T18:34:01.118Z,0.85
2023-05-17T18:36:29.072Z,1.00
2023-05-17T18:38:58.624Z,0.90
2023-05-17T18:41:28.272Z,0.90
2023-05-17T18:44:01.482Z,0.90
2023-05-17T18:46:30.067Z,0.57
2023-05-17T18:48:58.099Z,1.00
2023-05-17T18:51:26.032Z,0.85
2023-05-17T18:53:53.953Z,0.82
2023-05-17T18:56:23.298Z,0.80
2023-05-17T18:58:53.328Z,0.73
2023-05-17T19:01:21.557Z,1.08
2023-05-17T19:03:51.434Z,0.90
2023-05-17T19:06:19.673Z,1.10
2023-05-17T19:08:48.552Z,0.82
2023-05-17T19:11:16.546Z,0.80
2023-05-17T19:13:44.745Z,0.88
2023-05-17T19:16:15.597Z,0.85
2023-05-17T19:18:43.555Z,1.05
2023-05-17T19:21:11.557Z,0.95
2023-05-17T19:23:39.493Z,0.82
2023-05-17T19:26:07.491Z,1.05
2023-05-17T19:28:35.885Z,0.93
2023-05-17T19:31:04.514Z,0.60
2023-05-17T19:33:34.067Z,0.82
2023-05-17T19:36:02.235Z,0.60
2023-05-17T19:38:30.916Z,1.23
2023-05-17T19:40:58.818Z,0.85
2023-05-17T19:43:27.107Z,1.02
2023-05-17T19:45:55.134Z,0.77
2023-05-17T19:48:24.129Z,0.75
2023-05-17T19:50:56.153Z,1.25
2023-05-17T19:53:24.774Z,1.15
2023-05-17T19:55:53.128Z,0.80
2023-05-17T19:58:21.055Z,1.00
2023-05-17T20:00:48.975Z,0.77
2023-05-17T20:03:16.999Z,1.00
2023-05-17T20:05:45.019Z,1.02
2023-05-17T20:08:14.322Z,0.88
2023-05-17T20:10:42.320Z,0.80
2023-05-17T20:13:10.512Z,0.90
2023-05-17T20:15:38.404Z,0.80
2023-05-17T20:18:09.032Z,0.70
2023-05-17T20:20:37.174Z,0.60
2023-05-17T20:23:05.159Z,0.50
2023-05-17T20:25:34.427Z,0.50
2023-05-17T20:28:02.368Z,0.52
2023-05-17T20:30:30.579Z,0.80
2023-05-17T20:32:58.769Z,0.50
2023-05-17T20:35:26.734Z,0.43
2023-05-17T20:37:54.628Z,0.47
2023-05-17T20:40:22.698Z,0.77
2023-05-17T20:42:52.902Z,0.30
2023-05-17T20:45:21.645Z,0.40
2023-05-17T20:47:49.782Z,0.40
2023-05-17T20:50:20.838Z,0.40
2023-05-17T20:52:49.464Z,0.28
2023-05-17T20:55:17.450Z,0.57
2023-05-17T20:57:46.312Z,0.80
2023-05-17T21:00:17.980Z,0.45
2023-05-17T21:02:46.080Z,0.55
2023-05-17T21:05:14.114Z,0.50
2023-05-17T21:07:42.043Z,0.43
2023-05-17T21:10:10.777Z,0.45
2023-05-17T21:12:38.741Z,0.45
2023-05-17T21:15:15.902Z,0.30
2023-05-17T21:17:46.210Z,0.60
2023-05-17T21:20:14.554Z,0.35
2023-05-17T21:22:42.485Z,0.50
2023-05-17T21:25:11.100Z,0.30
2023-05-17T21:27:39.213Z,0.32
2023-05-17T21:30:08.507Z,0.40
2023-05-17T21:32:36.496Z,0.20
2023-05-17T21:35:06.506Z,0.30
2023-05-17T21:37:34.397Z,0.43
2023-05-17T21:40:03.008Z,0.40
2023-05-17T21:42:31.067Z,0.30
2023-05-17T21:44:58.945Z,0.30
2023-05-17T21:47:26.928Z,0.30
2023-05-17T21:49:54.860Z,0.22
2023-05-17T21:52:24.206Z,0.22
2023-05-17T21:54:52.084Z,0.40
2023-05-17T21:57:21.199Z,0.30
2023-05-17T21:59:49.233Z,0.38
2023-05-17T22:02:17.421Z,0.35
2023-05-17T22:04:45.329Z,0.40
2023-05-17T22:07:14.056Z,0.30
2023-05-17T22:09:45.448Z,0.30
2023-05-17T22:12:13.927Z,0.63
2023-05-17T22:14:44.363Z,0.40
2023-05-17T22:17:12.351Z,0.50
2023-05-17T22:19:41.627Z,0.38
2023-05-17T22:22:09.595Z,0.30
2023-05-17T22:24:37.858Z,0.40
2023-05-17T22:27:07.377Z,0.30
2023-05-17T22:29:38.382Z,0.22
2023-05-17T22:32:06.683Z,0.20
2023-05-17T22:34:34.611Z,0.32
2023-05-17T22:37:02.496Z,0.30
2023-05-17T22:39:30.664Z,0.30
